sensor_id;sensor_type;location;lat;lon;timestamp;pressure;altitude;pressure_sealevel;temperature;humidity
33265;BME280;31404;53.974;-1.086;2023-05-02T00:00:35;102408.67;;;11.37;70.95
33265;BME280;31404;53.974;-1.086;2023-05-02T00:05:34;102416.39;;;12.01;69.20
33265;BME280;31404;53.974;-1.086;2023-05-02T00:10:34;102425.12;;;12.11;68.55
33265;BME280;31404;53.974;-1.086;2023-05-02T00:15:34;102429.01;;;11.59;69.68
33265;BME280;31404;53.974;-1.086;2023-05-02T00:20:34;102431.34;;;11.61;70.12
33265;BME280;31404;53.974;-1.086;2023-05-02T00:25:34;102428.38;;;11.97;69.21
33265;BME280;31404;53.974;-1.086;2023-05-02T00:30:34;102433.36;;;11.97;69.04
33265;BME280;31404;53.974;-1.086;2023-05-02T00:35:35;102447.31;;;11.12;71.72
33265;BME280;31404;53.974;-1.086;2023-05-02T00:45:34;102441.46;;;12.68;67.36
33265;BME280;31404;53.974;-1.086;2023-05-02T00:50:36;102446.40;;;12.30;67.42
33265;BME280;31404;53.974;-1.086;2023-05-02T00:55:36;102449.52;;;11.75;69.65
33265;BME280;31404;53.974;-1.086;2023-05-02T01:15:37;102449.61;;;9.72;75.56
33265;BME280;31404;53.974;-1.086;2023-05-02T01:20:38;102446.81;;;10.71;73.44
33265;BME280;31404;53.974;-1.086;2023-05-02T01:30:37;102447.10;;;12.01;69.33
33265;BME280;31404;53.974;-1.086;2023-05-02T01:35:35;102453.19;;;12.41;68.35
33265;BME280;31404;53.974;-1.086;2023-05-02T01:40:36;102448.02;;;12.49;67.56
33265;BME280;31404;53.974;-1.086;2023-05-02T01:45:35;102439.69;;;13.29;64.64
33265;BME280;31404;53.974;-1.086;2023-05-02T01:50:35;102444.27;;;12.95;64.78
33265;BME280;31404;53.974;-1.086;2023-05-02T01:55:36;102449.02;;;12.94;65.20
33265;BME280;31404;53.974;-1.086;2023-05-02T02:00:36;102448.23;;;12.83;66.42
33265;BME280;31404;53.974;-1.086;2023-05-02T02:05:36;102454.80;;;12.07;66.72
33265;BME280;31404;53.974;-1.086;2023-05-02T02:10:39;102460.88;;;12.21;67.76
33265;BME280;31404;53.974;-1.086;2023-05-02T02:15:34;102460.45;;;12.76;66.37
33265;BME280;31404;53.974;-1.086;2023-05-02T02:20:35;102459.32;;;12.21;68.09
33265;BME280;31404;53.974;-1.086;2023-05-02T02:25:35;102469.46;;;9.11;78.02
33265;BME280;31404;53.974;-1.086;2023-05-02T02:30:35;102466.14;;;11.09;72.78
33265;BME280;31404;53.974;-1.086;2023-05-02T02:35:38;102470.17;;;10.32;73.66
33265;BME280;31404;53.974;-1.086;2023-05-02T02:45:39;102479.10;;;9.91;75.85
33265;BME280;31404;53.974;-1.086;2023-05-02T02:50:40;102484.72;;;11.22;71.69
33265;BME280;31404;53.974;-1.086;2023-05-02T03:00:35;102496.81;;;10.06;73.35
33265;BME280;31404;53.974;-1.086;2023-05-02T03:05:35;102502.53;;;8.79;80.79
33265;BME280;31404;53.974;-1.086;2023-05-02T03:10:35;102497.07;;;8.25;82.72
33265;BME280;31404;53.974;-1.086;2023-05-02T03:20:56;102489.74;;;7.67;86.94
33265;BME280;31404;53.974;-1.086;2023-05-02T03:25:34;102500.87;;;8.51;82.76
33265;BME280;31404;53.974;-1.086;2023-05-02T03:30:34;102501.14;;;10.52;74.31
33265;BME280;31404;53.974;-1.086;2023-05-02T03:35:35;102506.15;;;11.18;72.69
33265;BME280;31404;53.974;-1.086;2023-05-02T03:40:35;102505.31;;;8.92;78.49
33265;BME280;31404;53.974;-1.086;2023-05-02T03:45:34;102509.69;;;9.16;78.39
33265;BME280;31404;53.974;-1.086;2023-05-02T03:50:34;102509.73;;;9.62;76.79
33265;BME280;31404;53.974;-1.086;2023-05-02T04:00:36;102522.92;;;8.74;80.60
33265;BME280;31404;53.974;-1.086;2023-05-02T04:05:34;102522.48;;;9.77;74.69
33265;BME280;31404;53.974;-1.086;2023-05-02T04:10:34;102524.32;;;9.44;76.19
33265;BME280;31404;53.974;-1.086;2023-05-02T04:15:35;102535.22;;;6.85;89.05
33265;BME280;31404;53.974;-1.086;2023-05-02T04:20:35;102536.72;;;6.62;91.65
33265;BME280;31404;53.974;-1.086;2023-05-02T04:25:35;102538.33;;;6.51;93.16
33265;BME280;31404;53.974;-1.086;2023-05-02T04:30:35;102541.08;;;7.36;87.86
33265;BME280;31404;53.974;-1.086;2023-05-02T04:35:34;102544.59;;;6.70;92.89
33265;BME280;31404;53.974;-1.086;2023-05-02T04:40:35;102545.74;;;6.46;95.36
33265;BME280;31404;53.974;-1.086;2023-05-02T04:45:35;102545.69;;;6.56;94.80
33265;BME280;31404;53.974;-1.086;2023-05-02T04:50:34;102555.01;;;6.87;93.44
33265;BME280;31404;53.974;-1.086;2023-05-02T04:55:35;102554.66;;;6.91;93.26
33265;BME280;31404;53.974;-1.086;2023-05-02T05:00:35;102557.46;;;6.17;96.60
33265;BME280;31404;53.974;-1.086;2023-05-02T05:05:34;102561.44;;;6.72;95.16
33265;BME280;31404;53.974;-1.086;2023-05-02T05:10:34;102569.89;;;6.61;96.29
33265;BME280;31404;53.974;-1.086;2023-05-02T05:15:34;102575.68;;;6.15;100.00
33265;BME280;31404;53.974;-1.086;2023-05-02T05:20:34;102585.36;;;6.29;98.45
33265;BME280;31404;53.974;-1.086;2023-05-02T05:25:36;102591.69;;;5.69;100.00
33265;BME280;31404;53.974;-1.086;2023-05-02T05:30:35;102594.64;;;5.35;100.00
33265;BME280;31404;53.974;-1.086;2023-05-02T05:35:35;102598.05;;;7.53;93.69
33265;BME280;31404;53.974;-1.086;2023-05-02T05:40:34;102606.59;;;7.80;89.33
33265;BME280;31404;53.974;-1.086;2023-05-02T05:45:34;102610.77;;;8.23;87.76
33265;BME280;31404;53.974;-1.086;2023-05-02T05:50:35;102610.87;;;7.92;88.39
33265;BME280;31404;53.974;-1.086;2023-05-02T05:55:34;102627.39;;;7.56;89.59
33265;BME280;31404;53.974;-1.086;2023-05-02T06:00:35;102631.13;;;5.42;100.00
33265;BME280;31404;53.974;-1.086;2023-05-02T06:05:37;102629.39;;;6.51;96.80
33265;BME280;31404;53.974;-1.086;2023-05-02T06:10:34;102638.30;;;5.89;98.41
33265;BME280;31404;53.974;-1.086;2023-05-02T06:15:34;102647.10;;;7.47;89.68
33265;BME280;31404;53.974;-1.086;2023-05-02T06:20:35;102658.31;;;5.62;100.00
33265;BME280;31404;53.974;-1.086;2023-05-02T06:25:37;102659.09;;;4.33;100.00
33265;BME280;31404;53.974;-1.086;2023-05-02T06:30:35;102656.92;;;4.38;100.00
33265;BME280;31404;53.974;-1.086;2023-05-02T06:35:34;102652.58;;;5.51;100.00
33265;BME280;31404;53.974;-1.086;2023-05-02T06:40:34;102656.05;;;5.14;100.00
33265;BME280;31404;53.974;-1.086;2023-05-02T06:45:34;102662.84;;;3.86;100.00
33265;BME280;31404;53.974;-1.086;2023-05-02T06:50:34;102654.99;;;4.00;100.00
33265;BME280;31404;53.974;-1.086;2023-05-02T06:55:35;102662.43;;;4.25;100.00
33265;BME280;31404;53.974;-1.086;2023-05-02T07:00:34;102664.22;;;5.96;96.56
33265;BME280;31404;53.974;-1.086;2023-05-02T07:05:34;102667.02;;;6.42;92.71
33265;BME280;31404;53.974;-1.086;2023-05-02T07:10:34;102678.27;;;5.09;98.68
33265;BME280;31404;53.974;-1.086;2023-05-02T07:15:35;102681.71;;;4.40;100.00
33265;BME280;31404;53.974;-1.086;2023-05-02T07:20:35;102686.65;;;3.96;100.00
33265;BME280;31404;53.974;-1.086;2023-05-02T07:25:35;102677.13;;;4.91;100.00
33265;BME280;31404;53.974;-1.086;2023-05-02T07:30:35;102695.87;;;4.19;100.00
33265;BME280;31404;53.974;-1.086;2023-05-02T07:35:35;102692.46;;;5.38;100.00
33265;BME280;31404;53.974;-1.086;2023-05-02T07:40:35;102695.90;;;5.47;99.78
33265;BME280;31404;53.974;-1.086;2023-05-02T07:45:35;102689.96;;;7.15;88.89
33265;BME280;31404;53.974;-1.086;2023-05-02T07:50:35;102694.93;;;5.51;94.06
33265;BME280;31404;53.974;-1.086;2023-05-02T07:55:35;102695.15;;;7.52;86.88
33265;BME280;31404;53.974;-1.086;2023-05-02T08:00:35;102695.33;;;6.09;92.22
33265;BME280;31404;53.974;-1.086;2023-05-02T08:05:35;102691.27;;;8.22;80.94
33265;BME280;31404;53.974;-1.086;2023-05-02T08:10:35;102701.75;;;6.21;91.36
33265;BME280;31404;53.974;-1.086;2023-05-02T08:15:35;102699.26;;;6.73;88.68
33265;BME280;31404;53.974;-1.086;2023-05-02T08:20:35;102704.63;;;6.43;89.84
33265;BME280;31404;53.974;-1.086;2023-05-02T08:25:35;102706.73;;;7.23;88.74
33265;BME280;31404;53.974;-1.086;2023-05-02T08:30:35;102706.01;;;6.10;90.68
33265;BME280;31404;53.974;-1.086;2023-05-02T08:35:35;102708.28;;;6.55;90.30
33265;BME280;31404;53.974;-1.086;2023-05-02T08:40:36;102706.18;;;8.26;81.42
33265;BME280;31404;53.974;-1.086;2023-05-02T08:45:33;102714.74;;;7.81;80.59
33265;BME280;31404;53.974;-1.086;2023-05-02T08:50:36;102719.90;;;7.14;86.45
33265;BME280;31404;53.974;-1.086;2023-05-02T08:55:37;102724.28;;;5.76;93.77
33265;BME280;31404;53.974;-1.086;2023-05-02T09:10:35;102723.18;;;7.88;81.29
33265;BME280;31404;53.974;-1.086;2023-05-02T09:15:34;102723.08;;;7.59;83.13
33265;BME280;31404;53.974;-1.086;2023-05-02T09:25:35;102734.89;;;7.51;81.04
33265;BME280;31404;53.974;-1.086;2023-05-02T09:30:34;102737.38;;;5.65;89.35
33265;BME280;31404;53.974;-1.086;2023-05-02T09:35:34;102740.93;;;6.13;89.04
33265;BME280;31404;53.974;-1.086;2023-05-02T09:40:34;102746.09;;;6.66;85.15
33265;BME280;31404;53.974;-1.086;2023-05-02T09:45:34;102740.66;;;8.08;78.12
33265;BME280;31404;53.974;-1.086;2023-05-02T09:50:36;102741.29;;;8.95;74.46
33265;BME280;31404;53.974;-1.086;2023-05-02T09:55:36;102740.92;;;9.54;73.04
33265;BME280;31404;53.974;-1.086;2023-05-02T10:05:36;102754.72;;;9.40;72.70
33265;BME280;31404;53.974;-1.086;2023-05-02T10:10:36;102761.62;;;8.50;73.66
33265;BME280;31404;53.974;-1.086;2023-05-02T10:20:35;102752.51;;;7.51;80.70
33265;BME280;31404;53.974;-1.086;2023-05-02T10:25:34;102755.57;;;7.14;82.63
33265;BME280;31404;53.974;-1.086;2023-05-02T10:30:35;102757.57;;;7.75;79.17
33265;BME280;31404;53.974;-1.086;2023-05-02T10:35:36;102762.01;;;8.55;75.74
33265;BME280;31404;53.974;-1.086;2023-05-02T10:40:35;102758.89;;;8.12;78.13
33265;BME280;31404;53.974;-1.086;2023-05-02T10:45:35;102755.05;;;9.15;73.06
33265;BME280;31404;53.974;-1.086;2023-05-02T10:55:35;102765.14;;;9.90;72.00
33265;BME280;31404;53.974;-1.086;2023-05-02T11:00:34;102768.41;;;9.86;71.28
33265;BME280;31404;53.974;-1.086;2023-05-02T11:10:35;102779.90;;;8.35;75.31
33265;BME280;31404;53.974;-1.086;2023-05-02T11:20:35;102771.50;;;10.34;70.34
33265;BME280;31404;53.974;-1.086;2023-05-02T11:25:37;102770.23;;;11.03;68.37
33265;BME280;31404;53.974;-1.086;2023-05-02T11:35:35;102771.60;;;8.88;76.27
33265;BME280;31404;53.974;-1.086;2023-05-02T11:40:35;102766.97;;;9.29;74.28
33265;BME280;31404;53.974;-1.086;2023-05-02T11:45:35;102776.14;;;8.76;77.48
33265;BME280;31404;53.974;-1.086;2023-05-02T11:55:34;102786.24;;;9.92;73.05
33265;BME280;31404;53.974;-1.086;2023-05-02T12:00:34;102795.97;;;9.32;73.38
33265;BME280;31404;53.974;-1.086;2023-05-02T12:05:34;102786.89;;;11.17;69.24
33265;BME280;31404;53.974;-1.086;2023-05-02T12:10:36;102788.24;;;10.27;71.09
33265;BME280;31404;53.974;-1.086;2023-05-02T12:15:35;102795.34;;;10.23;74.77
33265;BME280;31404;53.974;-1.086;2023-05-02T12:20:35;102791.09;;;10.58;69.65
33265;BME280;31404;53.974;-1.086;2023-05-02T12:30:35;102789.49;;;10.32;71.64
33265;BME280;31404;53.974;-1.086;2023-05-02T12:35:35;102804.03;;;9.75;72.86
33265;BME280;31404;53.974;-1.086;2023-05-02T12:40:36;102798.79;;;10.94;71.22
33265;BME280;31404;53.974;-1.086;2023-05-02T12:45:35;102798.56;;;10.72;69.91
33265;BME280;31404;53.974;-1.086;2023-05-02T12:50:36;102791.70;;;10.75;69.37
33265;BME280;31404;53.974;-1.086;2023-05-02T12:55:35;102788.23;;;11.42;68.43
33265;BME280;31404;53.974;-1.086;2023-05-02T13:00:37;102784.56;;;11.40;68.93
33265;BME280;31404;53.974;-1.086;2023-05-02T13:10:34;102769.11;;;12.19;66.37
33265;BME280;31404;53.974;-1.086;2023-05-02T13:15:34;102766.14;;;10.54;71.93
33265;BME280;31404;53.974;-1.086;2023-05-02T13:20:35;102772.99;;;11.14;69.34
33265;BME280;31404;53.974;-1.086;2023-05-02T13:25:35;102777.51;;;9.82;73.03
33265;BME280;31404;53.974;-1.086;2023-05-02T13:30:35;102780.04;;;10.44;71.81
33265;BME280;31404;53.974;-1.086;2023-05-02T13:35:36;102782.14;;;11.79;66.29
33265;BME280;31404;53.974;-1.086;2023-05-02T13:40:34;102778.76;;;11.42;67.35
33265;BME280;31404;53.974;-1.086;2023-05-02T13:45:29;102779.30;;;11.74;65.95
33265;BME280;31404;53.974;-1.086;2023-05-02T13:50:35;102788.49;;;11.63;70.99
33265;BME280;31404;53.974;-1.086;2023-05-02T13:55:35;102784.26;;;13.87;70.04
33265;BME280;31404;53.974;-1.086;2023-05-02T14:00:35;102785.75;;;13.73;61.87
33265;BME280;31404;53.974;-1.086;2023-05-02T14:05:36;102795.43;;;14.18;60.13
33265;BME280;31404;53.974;-1.086;2023-05-02T14:10:35;102797.24;;;11.77;66.93
33265;BME280;31404;53.974;-1.086;2023-05-02T14:15:35;102796.48;;;12.38;64.79
33265;BME280;31404;53.974;-1.086;2023-05-02T14:20:34;102789.35;;;11.75;66.52
33265;BME280;31404;53.974;-1.086;2023-05-02T14:25:35;102786.60;;;11.32;68.22
33265;BME280;31404;53.974;-1.086;2023-05-02T14:30:35;102771.15;;;11.07;68.85
33265;BME280;31404;53.974;-1.086;2023-05-02T14:35:35;102773.85;;;10.61;70.94
33265;BME280;31404;53.974;-1.086;2023-05-02T14:40:35;102759.80;;;10.81;70.78
33265;BME280;31404;53.974;-1.086;2023-05-02T14:45:35;102761.45;;;12.14;65.95
33265;BME280;31404;53.974;-1.086;2023-05-02T14:50:36;102751.26;;;12.55;65.85
33265;BME280;31404;53.974;-1.086;2023-05-02T14:55:35;102767.05;;;10.40;71.23
33265;BME280;31404;53.974;-1.086;2023-05-02T15:00:35;102764.22;;;11.67;69.76
33265;BME280;31404;53.974;-1.086;2023-05-02T15:05:35;102776.06;;;10.38;74.00
33265;BME280;31404;53.974;-1.086;2023-05-02T15:10:36;102762.01;;;12.43;66.89
33265;BME280;31404;53.974;-1.086;2023-05-02T15:15:35;102755.18;;;12.12;67.80
33265;BME280;31404;53.974;-1.086;2023-05-02T15:20:34;102752.20;;;11.85;68.68
33265;BME280;31404;53.974;-1.086;2023-05-02T15:25:34;102739.34;;;11.88;68.30
33265;BME280;31404;53.974;-1.086;2023-05-02T15:30:35;102736.57;;;9.95;75.09
33265;BME280;31404;53.974;-1.086;2023-05-02T15:35:34;102725.45;;;11.19;69.89
33265;BME280;31404;53.974;-1.086;2023-05-02T15:40:35;102722.46;;;11.40;71.23
33265;BME280;31404;53.974;-1.086;2023-05-02T15:45:35;102720.68;;;10.91;73.44
33265;BME280;31404;53.974;-1.086;2023-05-02T15:50:35;102724.36;;;9.75;76.66
33265;BME280;31404;53.974;-1.086;2023-05-02T15:55:36;102727.28;;;9.88;75.34
33265;BME280;31404;53.974;-1.086;2023-05-02T16:00:35;102726.36;;;11.21;71.19
33265;BME280;31404;53.974;-1.086;2023-05-02T16:05:35;102715.84;;;11.44;70.42
33265;BME280;31404;53.974;-1.086;2023-05-02T16:10:35;102719.54;;;11.58;69.85
33265;BME280;31404;53.974;-1.086;2023-05-02T16:15:35;102720.19;;;11.96;68.18
33265;BME280;31404;53.974;-1.086;2023-05-02T16:20:34;102718.01;;;10.49;73.30
33265;BME280;31404;53.974;-1.086;2023-05-02T16:25:34;102724.12;;;11.52;70.36
33265;BME280;31404;53.974;-1.086;2023-05-02T16:30:35;102719.67;;;12.67;67.24
33265;BME280;31404;53.974;-1.086;2023-05-02T16:35:35;102719.31;;;11.38;71.19
33265;BME280;31404;53.974;-1.086;2023-05-02T16:40:35;102715.65;;;12.78;67.25
33265;BME280;31404;53.974;-1.086;2023-05-02T16:45:34;102712.51;;;10.78;72.45
33265;BME280;31404;53.974;-1.086;2023-05-02T16:50:35;102716.69;;;10.74;72.26
33265;BME280;31404;53.974;-1.086;2023-05-02T16:55:35;102709.00;;;11.22;70.79
33265;BME280;31404;53.974;-1.086;2023-05-02T17:00:35;102701.81;;;12.21;68.30
33265;BME280;31404;53.974;-1.086;2023-05-02T17:05:35;102700.38;;;10.37;73.92
33265;BME280;31404;53.974;-1.086;2023-05-02T17:10:35;102704.14;;;12.09;69.23
33265;BME280;31404;53.974;-1.086;2023-05-02T17:15:35;102703.42;;;10.92;70.71
33265;BME280;31404;53.974;-1.086;2023-05-02T17:20:35;102700.24;;;10.53;72.47
33265;BME280;31404;53.974;-1.086;2023-05-02T17:25:34;102699.75;;;11.76;67.93
33265;BME280;31404;53.974;-1.086;2023-05-02T17:30:34;102698.35;;;10.91;70.18
33265;BME280;31404;53.974;-1.086;2023-05-02T17:35:34;102699.04;;;9.47;74.84
33265;BME280;31404;53.974;-1.086;2023-05-02T17:40:35;102702.28;;;9.32;76.60
33265;BME280;31404;53.974;-1.086;2023-05-02T17:45:35;102707.35;;;11.06;69.22
33265;BME280;31404;53.974;-1.086;2023-05-02T17:50:36;102711.51;;;11.92;66.69
33265;BME280;31404;53.974;-1.086;2023-05-02T17:55:36;102708.73;;;8.97;75.47
33265;BME280;31404;53.974;-1.086;2023-05-02T18:00:35;102697.93;;;8.92;76.08
33265;BME280;31404;53.974;-1.086;2023-05-02T18:15:35;102690.79;;;9.06;77.02
33265;BME280;31404;53.974;-1.086;2023-05-02T18:25:35;102691.20;;;8.86;76.26
33265;BME280;31404;53.974;-1.086;2023-05-02T18:30:35;102699.55;;;7.74;80.25
33265;BME280;31404;53.974;-1.086;2023-05-02T18:35:34;102706.74;;;8.47;77.88
33265;BME280;31404;53.974;-1.086;2023-05-02T18:40:34;102708.99;;;8.90;75.82
33265;BME280;31404;53.974;-1.086;2023-05-02T18:45:35;102712.83;;;8.11;79.29
33265;BME280;31404;53.974;-1.086;2023-05-02T18:50:35;102713.95;;;8.00;79.75
33265;BME280;31404;53.974;-1.086;2023-05-02T18:55:31;102706.85;;;9.40;75.26
33265;BME280;31404;53.974;-1.086;2023-05-02T19:00:35;102709.89;;;9.27;74.36
33265;BME280;31404;53.974;-1.086;2023-05-02T19:05:34;102716.15;;;8.90;75.84
33265;BME280;31404;53.974;-1.086;2023-05-02T19:10:34;102721.76;;;9.15;74.79
33265;BME280;31404;53.974;-1.086;2023-05-02T19:15:34;102721.94;;;11.07;68.35
33265;BME280;31404;53.974;-1.086;2023-05-02T19:20:29;102732.42;;;9.82;73.06
33265;BME280;31404;53.974;-1.086;2023-05-02T19:25:37;102737.56;;;9.51;74.14
33265;BME280;31404;53.974;-1.086;2023-05-02T19:30:35;102747.07;;;10.07;71.59
33265;BME280;31404;53.974;-1.086;2023-05-02T19:35:36;102754.56;;;10.11;72.41
33265;BME280;31404;53.974;-1.086;2023-05-02T19:40:35;102765.29;;;8.70;78.45
33265;BME280;31404;53.974;-1.086;2023-05-02T19:45:35;102769.18;;;7.31;86.32
33265;BME280;31404;53.974;-1.086;2023-05-02T19:50:34;102773.68;;;7.67;82.93
33265;BME280;31404;53.974;-1.086;2023-05-02T19:55:35;102781.61;;;6.93;87.52
33265;BME280;31404;53.974;-1.086;2023-05-02T20:00:35;102781.57;;;7.74;92.81
33265;BME280;31404;53.974;-1.086;2023-05-02T20:05:35;102779.29;;;7.27;94.15
33265;BME280;31404;53.974;-1.086;2023-05-02T20:10:35;102784.16;;;7.03;86.79
33265;BME280;31404;53.974;-1.086;2023-05-02T20:15:34;102790.61;;;7.20;85.50
33265;BME280;31404;53.974;-1.086;2023-05-02T20:20:35;102794.78;;;6.30;88.88
33265;BME280;31404;53.974;-1.086;2023-05-02T20:25:35;102795.95;;;7.57;83.01
33265;BME280;31404;53.974;-1.086;2023-05-02T20:30:35;102806.50;;;7.09;84.99
33265;BME280;31404;53.974;-1.086;2023-05-02T20:35:34;102816.23;;;7.81;80.85
33265;BME280;31404;53.974;-1.086;2023-05-02T20:40:38;102818.23;;;7.90;81.36
33265;BME280;31404;53.974;-1.086;2023-05-02T20:45:35;102822.86;;;7.67;80.24
33265;BME280;31404;53.974;-1.086;2023-05-02T20:50:35;102820.96;;;8.93;74.85
33265;BME280;31404;53.974;-1.086;2023-05-02T20:55:34;102824.96;;;6.99;82.45
33265;BME280;31404;53.974;-1.086;2023-05-02T21:00:35;102831.05;;;6.26;87.07
33265;BME280;31404;53.974;-1.086;2023-05-02T21:05:35;102829.29;;;6.02;89.39
33265;BME280;31404;53.974;-1.086;2023-05-02T21:10:34;102826.88;;;7.20;85.30
33265;BME280;31404;53.974;-1.086;2023-05-02T21:15:41;102827.80;;;7.55;81.81
33265;BME280;31404;53.974;-1.086;2023-05-02T21:20:34;102824.80;;;6.86;84.11
33265;BME280;31404;53.974;-1.086;2023-05-02T21:25:38;102827.50;;;6.82;83.57
33265;BME280;31404;53.974;-1.086;2023-05-02T21:30:34;102831.54;;;7.87;79.54
33265;BME280;31404;53.974;-1.086;2023-05-02T21:35:36;102837.90;;;6.51;86.56
33265;BME280;31404;53.974;-1.086;2023-05-02T21:40:39;102840.45;;;7.13;83.48
33265;BME280;31404;53.974;-1.086;2023-05-02T21:50:34;102847.65;;;7.08;84.07
33265;BME280;31404;53.974;-1.086;2023-05-02T21:55:35;102841.24;;;6.44;88.18
33265;BME280;31404;53.974;-1.086;2023-05-02T22:00:35;102830.74;;;5.68;91.87
33265;BME280;31404;53.974;-1.086;2023-05-02T22:05:36;102828.92;;;6.46;89.82
33265;BME280;31404;53.974;-1.086;2023-05-02T22:10:38;102832.63;;;6.54;89.79
33265;BME280;31404;53.974;-1.086;2023-05-02T22:15:34;102821.08;;;7.00;88.55
33265;BME280;31404;53.974;-1.086;2023-05-02T22:20:35;102822.21;;;6.86;87.80
33265;BME280;31404;53.974;-1.086;2023-05-02T22:25:37;102833.54;;;6.51;86.13
33265;BME280;31404;53.974;-1.086;2023-05-02T22:30:35;102832.85;;;5.86;89.39
33265;BME280;31404;53.974;-1.086;2023-05-02T22:35:35;102830.58;;;5.34;92.80
33265;BME280;31404;53.974;-1.086;2023-05-02T22:40:34;102826.37;;;5.69;89.62
33265;BME280;31404;53.974;-1.086;2023-05-02T22:45:36;102815.09;;;6.99;83.89
33265;BME280;31404;53.974;-1.086;2023-05-02T22:50:35;102810.73;;;5.69;89.90
33265;BME280;31404;53.974;-1.086;2023-05-02T22:55:37;102809.83;;;5.91;89.51
33265;BME280;31404;53.974;-1.086;2023-05-02T23:00:36;102808.48;;;5.61;91.48
33265;BME280;31404;53.974;-1.086;2023-05-02T23:05:36;102816.90;;;5.95;88.10
33265;BME280;31404;53.974;-1.086;2023-05-02T23:10:35;102818.22;;;7.57;80.62
33265;BME280;31404;53.974;-1.086;2023-05-02T23:15:35;102825.31;;;8.24;78.04
33265;BME280;31404;53.974;-1.086;2023-05-02T23:20:35;102829.70;;;9.11;75.56
33265;BME280;31404;53.974;-1.086;2023-05-02T23:25:38;102826.54;;;8.02;76.87
33265;BME280;31404;53.974;-1.086;2023-05-02T23:30:37;102843.63;;;7.54;81.25
33265;BME280;31404;53.974;-1.086;2023-05-02T23:35:30;102855.66;;;8.58;76.11
33265;BME280;31404;53.974;-1.086;2023-05-02T23:40:35;102841.69;;;8.14;75.27
33265;BME280;31404;53.974;-1.086;2023-05-02T23:45:35;102845.79;;;8.78;74.78
33265;BME280;31404;53.974;-1.086;2023-05-02T23:50:36;102845.94;;;7.69;78.89
33265;BME280;31404;53.974;-1.086;2023-05-02T23:55:36;102853.08;;;8.79;75.40
